createdAt,value
2022-09-10T00:00:37.497Z,0.00
2022-09-10T00:01:37.538Z,0.00
2022-09-10T00:02:37.511Z,0.00
2022-09-10T00:03:37.486Z,0.00
2022-09-10T00:04:37.446Z,0.00
2022-09-10T00:05:37.442Z,0.00
2022-09-10T00:06:37.419Z,0.00
2022-09-10T00:07:37.418Z,0.00
2022-09-10T00:08:37.639Z,0.00
2022-09-10T00:09:37.377Z,0.00
2022-09-10T00:10:37.370Z,0.00
2022-09-10T00:11:37.375Z,0.00
2022-09-10T00:12:37.357Z,0.00
2022-09-10T00:13:37.346Z,0.00
2022-09-10T00:14:37.311Z,0.00
2022-09-10T00:15:37.320Z,0.00
2022-09-10T00:16:37.357Z,0.00
2022-09-10T00:17:44.790Z,0.00
2022-09-10T00:18:37.359Z,0.00
2022-09-10T00:19:37.260Z,0.00
2022-09-10T00:20:37.241Z,0.00
2022-09-10T00:21:37.231Z,0.00
2022-09-10T00:22:37.218Z,0.00
2022-09-10T00:23:37.201Z,0.00
2022-09-10T00:24:37.182Z,0.00
2022-09-10T00:25:37.187Z,0.00
2022-09-10T00:26:37.162Z,0.00
2022-09-10T00:27:37.153Z,0.00
2022-09-10T00:28:37.155Z,0.00
2022-09-10T00:29:37.130Z,0.00
2022-09-10T00:30:37.104Z,0.00
2022-09-10T00:31:37.120Z,0.00
2022-09-10T00:32:37.072Z,0.00
2022-09-10T00:33:37.103Z,0.00
2022-09-10T00:34:37.045Z,0.00
2022-09-10T00:35:37.046Z,0.00
2022-09-10T00:36:37.025Z,0.00
2022-09-10T00:37:37.004Z,0.00
2022-09-10T00:38:37.073Z,0.00
2022-09-10T00:39:37.011Z,0.00
2022-09-10T00:40:37.000Z,0.00
2022-09-10T00:41:36.964Z,0.00
2022-09-10T00:42:36.935Z,0.00
2022-09-10T00:43:36.945Z,0.00
2022-09-10T00:44:36.914Z,0.00
2022-09-10T00:45:36.943Z,0.00
2022-09-10T00:46:36.891Z,0.00
2022-09-10T00:47:36.893Z,0.00
2022-09-10T00:48:36.904Z,0.00
2022-09-10T00:49:36.855Z,0.00
2022-09-10T00:50:36.847Z,0.00
2022-09-10T00:51:36.824Z,0.00
2022-09-10T00:52:39.767Z,0.00
2022-09-10T00:53:36.817Z,0.00
2022-09-10T00:54:36.776Z,0.00
2022-09-10T00:55:36.787Z,0.00
2022-09-10T00:56:36.744Z,0.00
2022-09-10T00:57:36.760Z,0.00
2022-09-10T00:58:36.852Z,0.00
2022-09-10T00:59:36.728Z,0.00
2022-09-10T01:00:36.772Z,0.00
2022-09-10T01:01:36.718Z,0.00
2022-09-10T01:02:36.680Z,0.00
2022-09-10T01:03:36.669Z,0.00
2022-09-10T01:04:36.649Z,0.00
2022-09-10T01:05:36.648Z,0.00
2022-09-10T01:06:36.609Z,0.00
2022-09-10T01:07:36.602Z,0.00
2022-09-10T01:08:36.634Z,0.00
2022-09-10T01:09:36.581Z,0.00
2022-09-10T01:10:36.575Z,0.00
2022-09-10T01:11:36.570Z,0.00
2022-09-10T01:12:36.543Z,0.00
2022-09-10T01:13:36.530Z,0.00
2022-09-10T01:14:36.523Z,0.00
2022-09-10T01:15:36.518Z,0.00
2022-09-10T01:16:36.513Z,0.00
2022-09-10T01:17:36.471Z,0.00
2022-09-10T01:18:36.490Z,0.00
2022-09-10T01:19:36.451Z,0.00
2022-09-10T01:20:36.470Z,0.00
2022-09-10T01:21:36.411Z,0.00
2022-09-10T01:22:36.426Z,0.00
2022-09-10T01:23:36.394Z,0.00
2022-09-10T01:24:36.393Z,0.00
2022-09-10T01:25:36.382Z,0.00
2022-09-10T01:26:36.347Z,0.00
2022-09-10T01:27:36.343Z,0.00
2022-09-10T01:28:36.367Z,0.00
2022-09-10T01:29:36.312Z,0.00
2022-09-10T01:30:36.305Z,0.00
2022-09-10T01:31:36.334Z,0.00
2022-09-10T01:32:36.273Z,0.00
2022-09-10T01:33:36.268Z,0.00
2022-09-10T01:34:36.259Z,0.00
2022-09-10T01:35:36.233Z,0.00
2022-09-10T01:36:36.225Z,0.00
2022-09-10T01:37:36.207Z,0.00
2022-09-10T01:38:36.226Z,0.00
2022-09-10T01:39:36.216Z,0.00
2022-09-10T01:40:36.168Z,0.00
2022-09-10T01:41:36.162Z,0.00
2022-09-10T01:42:36.152Z,0.00
2022-09-10T01:43:36.130Z,0.00
2022-09-10T01:44:36.139Z,0.00
2022-09-10T01:45:36.112Z,0.00
2022-09-10T01:46:36.080Z,0.00
2022-09-10T01:47:36.075Z,0.00
2022-09-10T01:48:36.137Z,0.00
2022-09-10T01:49:36.049Z,0.00
2022-09-10T01:50:36.035Z,0.00
2022-09-10T01:51:36.037Z,0.00
2022-09-10T01:52:36.017Z,0.00
2022-09-10T01:53:35.998Z,0.00
2022-09-10T01:54:37.027Z,0.00
2022-09-10T01:55:35.958Z,0.00
2022-09-10T01:56:35.958Z,0.00
2022-09-10T01:57:35.956Z,0.00
2022-09-10T01:58:35.948Z,0.00
2022-09-10T01:59:35.934Z,0.00
2022-09-10T02:00:35.909Z,0.00
2022-09-10T02:01:35.913Z,0.00
2022-09-10T02:02:35.875Z,0.00
2022-09-10T02:03:35.880Z,0.00
2022-09-10T02:04:35.871Z,0.00
2022-09-10T02:05:35.848Z,0.00
2022-09-10T02:06:35.841Z,0.00
2022-09-10T02:07:35.838Z,0.00
2022-09-10T02:08:35.819Z,0.00
2022-09-10T02:09:35.794Z,0.00
2022-09-10T02:10:35.778Z,0.00
2022-09-10T02:11:35.751Z,0.00
2022-09-10T02:12:35.750Z,0.00
2022-09-10T02:13:35.758Z,0.00
2022-09-10T02:14:35.720Z,0.00
2022-09-10T02:15:35.718Z,0.00
2022-09-10T02:16:35.728Z,0.00
2022-09-10T02:17:35.682Z,0.00
2022-09-10T02:18:35.705Z,0.00
2022-09-10T02:19:35.661Z,0.00
2022-09-10T02:20:35.675Z,0.00
2022-09-10T02:21:35.624Z,0.00
2022-09-10T02:22:35.644Z,0.00
2022-09-10T02:23:35.633Z,0.00
2022-09-10T02:24:35.603Z,0.00
2022-09-10T02:25:35.616Z,0.00
2022-09-10T02:26:35.563Z,0.00
2022-09-10T02:27:35.566Z,0.00
2022-09-10T02:28:35.570Z,0.00
2022-09-10T02:29:35.524Z,0.00
2022-09-10T02:30:35.527Z,0.00
2022-09-10T02:31:35.617Z,0.00
2022-09-10T02:32:35.492Z,0.00
2022-09-10T02:33:35.535Z,0.00
2022-09-10T02:34:35.503Z,0.00
2022-09-10T02:35:35.454Z,0.00
2022-09-10T02:36:35.445Z,0.00
2022-09-10T02:37:35.444Z,0.00
2022-09-10T02:38:35.436Z,0.00
2022-09-10T02:39:35.437Z,0.00
2022-09-10T02:40:35.410Z,0.00
2022-09-10T02:41:35.384Z,0.00
2022-09-10T02:42:35.384Z,0.00
2022-09-10T02:43:35.359Z,0.00
2022-09-10T02:44:35.351Z,0.00
2022-09-10T02:45:35.353Z,0.00
2022-09-10T02:46:35.317Z,0.00
2022-09-10T02:47:35.309Z,0.00
2022-09-10T02:48:35.306Z,0.00
2022-09-10T02:49:35.266Z,0.00
2022-09-10T02:50:35.263Z,0.00
2022-09-10T02:51:35.245Z,0.00
2022-09-10T02:52:35.237Z,0.00
2022-09-10T02:53:35.226Z,0.00
2022-09-10T02:54:35.240Z,0.00
2022-09-10T02:55:35.188Z,0.00
2022-09-10T02:56:35.198Z,0.00
2022-09-10T02:57:35.176Z,0.00
2022-09-10T02:58:35.265Z,0.00
2022-09-10T02:59:35.149Z,0.00
2022-09-10T03:00:35.121Z,0.00
2022-09-10T03:01:35.130Z,0.00
2022-09-10T03:02:35.117Z,0.00
2022-09-10T03:03:35.099Z,0.00
2022-09-10T03:04:35.108Z,0.00
2022-09-10T03:05:35.096Z,0.00
2022-09-10T03:06:35.059Z,0.00
2022-09-10T03:07:35.039Z,0.00
2022-09-10T03:08:35.116Z,0.00
2022-09-10T03:09:35.020Z,0.00
2022-09-10T03:10:34.998Z,0.00
2022-09-10T03:11:34.990Z,0.00
2022-09-10T03:12:34.982Z,0.00
2022-09-10T03:13:34.985Z,0.00
2022-09-10T03:14:34.948Z,0.00
2022-09-10T03:15:34.931Z,0.00
2022-09-10T03:16:34.944Z,0.00
2022-09-10T03:17:34.925Z,0.00
2022-09-10T03:18:34.976Z,0.00
2022-09-10T03:19:34.880Z,0.00
2022-09-10T03:20:34.892Z,0.00
2022-09-10T03:21:34.864Z,0.00
2022-09-10T03:22:34.844Z,0.00
2022-09-10T03:23:37.300Z,0.00
2022-09-10T03:24:34.822Z,0.00
2022-09-10T03:25:34.815Z,0.00
2022-09-10T03:26:34.828Z,0.00
2022-09-10T03:27:34.854Z,0.00
2022-09-10T03:28:34.833Z,0.00
2022-09-10T03:29:34.753Z,0.00
2022-09-10T03:30:35.818Z,0.00
2022-09-10T03:31:34.838Z,0.00
2022-09-10T03:32:34.784Z,0.00
2022-09-10T03:33:34.726Z,0.00
2022-09-10T03:34:34.803Z,0.00
2022-09-10T03:35:34.804Z,0.00
2022-09-10T03:36:35.739Z,0.00
2022-09-10T03:37:34.665Z,0.00
2022-09-10T03:38:34.836Z,0.00
2022-09-10T03:39:34.654Z,0.00
2022-09-10T03:40:34.637Z,0.00
2022-09-10T03:41:34.688Z,0.00
2022-09-10T03:42:34.584Z,0.00
2022-09-10T03:43:34.705Z,0.00
2022-09-10T03:44:34.705Z,0.00
2022-09-10T03:45:34.612Z,0.00
2022-09-10T03:46:34.576Z,0.00
2022-09-10T03:47:34.527Z,0.00
2022-09-10T03:48:34.710Z,0.00
2022-09-10T03:49:34.603Z,0.00
2022-09-10T04:03:28.216Z,0.00
2022-09-10T04:04:28.248Z,0.00
2022-09-10T04:05:28.245Z,0.00
2022-09-10T04:06:28.264Z,0.00
2022-09-10T04:07:28.198Z,0.00
2022-09-10T04:08:28.207Z,0.00
2022-09-10T04:09:28.169Z,0.00
2022-09-10T04:10:28.190Z,0.00
2022-09-10T04:11:28.117Z,0.00
2022-09-10T04:12:28.120Z,0.00
2022-09-10T04:13:28.103Z,0.00
2022-09-10T04:14:28.112Z,0.00
2022-09-10T04:15:28.122Z,0.00
2022-09-10T04:16:28.190Z,0.00
2022-09-10T04:17:28.040Z,0.00
2022-09-10T04:18:28.042Z,0.00
2022-09-10T04:19:28.044Z,0.00
2022-09-10T04:20:28.019Z,0.00
2022-09-10T04:21:28.064Z,0.00
2022-09-10T04:22:27.960Z,0.00
2022-09-10T04:23:28.002Z,0.00
2022-09-10T04:24:27.996Z,0.00
2022-09-10T04:25:29.960Z,0.00
2022-09-10T04:26:27.999Z,0.00
2022-09-10T04:27:27.990Z,0.00
2022-09-10T04:28:27.929Z,0.00
2022-09-10T04:29:27.932Z,0.00
2022-09-10T04:30:27.923Z,0.00
2022-09-10T04:31:50.931Z,0.00
2022-09-10T04:32:27.832Z,0.00
2022-09-10T04:33:27.863Z,0.00
2022-09-10T04:34:27.812Z,0.00
2022-09-10T04:35:27.849Z,0.00
2022-09-10T04:36:27.792Z,0.00
2022-09-10T04:37:27.862Z,0.00
2022-09-10T04:38:27.742Z,0.00
2022-09-10T04:39:27.824Z,0.00
2022-09-10T04:40:27.783Z,0.00
2022-09-10T04:41:27.813Z,0.00
2022-09-10T04:42:27.791Z,0.00
2022-09-10T04:43:27.703Z,0.00
2022-09-10T04:44:27.769Z,0.00
2022-09-10T04:45:27.774Z,0.00
2022-09-10T04:46:27.724Z,0.00
2022-09-10T04:47:27.743Z,0.00
2022-09-10T04:48:27.604Z,0.00
2022-09-10T04:49:27.664Z,0.00
2022-09-10T04:50:27.665Z,0.00
2022-09-10T04:51:27.695Z,0.00
2022-09-10T04:52:27.663Z,0.00
2022-09-10T04:53:27.558Z,0.00
2022-09-10T04:54:29.557Z,0.00
2022-09-10T04:55:27.514Z,0.00
2022-09-10T04:56:27.596Z,0.00
2022-09-10T04:57:27.596Z,0.00
2022-09-10T04:58:27.495Z,0.00
2022-09-10T04:59:28.558Z,0.00
2022-09-10T05:00:27.498Z,0.00
2022-09-10T05:01:27.543Z,0.00
2022-09-10T05:02:27.576Z,0.00
2022-09-10T05:03:27.457Z,0.00
2022-09-10T05:04:27.467Z,0.00
2022-09-10T05:05:28.468Z,0.00
2022-09-10T05:06:27.449Z,0.00
2022-09-10T05:07:27.450Z,0.00
2022-09-10T05:08:27.347Z,0.00
2022-09-10T05:09:27.447Z,0.00
2022-09-10T05:10:27.378Z,0.00
2022-09-10T05:11:29.385Z,0.00
2022-09-10T05:12:27.297Z,0.00
2022-09-10T05:13:27.287Z,0.00
2022-09-10T05:14:27.287Z,0.00
2022-09-10T05:15:27.298Z,0.00
2022-09-10T05:16:27.270Z,5.62
2022-09-10T05:17:27.339Z,5.62
2022-09-10T05:18:27.210Z,5.62
2022-09-10T05:19:27.270Z,5.62
2022-09-10T05:20:27.204Z,5.62
2022-09-10T05:21:27.160Z,5.62
2022-09-10T05:22:33.687Z,5.62
2022-09-10T05:23:28.151Z,5.62
2022-09-10T05:24:27.183Z,5.62
2022-09-10T05:25:27.191Z,5.62
2022-09-10T05:26:27.114Z,5.62
2022-09-10T05:27:27.100Z,11.25
2022-09-10T05:28:27.128Z,11.25
2022-09-10T05:29:27.062Z,11.25
2022-09-10T05:30:27.140Z,11.25
2022-09-10T05:31:27.058Z,11.25
2022-09-10T05:32:27.125Z,11.25
2022-09-10T05:33:27.022Z,11.25
2022-09-10T05:34:27.114Z,11.25
2022-09-10T05:35:26.985Z,11.25
2022-09-10T05:36:27.045Z,11.25
2022-09-10T05:37:27.053Z,11.25
2022-09-10T05:38:26.958Z,11.25
2022-09-10T05:39:51.211Z,16.88
2022-09-10T05:40:26.963Z,16.88
2022-09-10T05:41:26.921Z,16.88
2022-09-10T05:42:26.904Z,16.88
2022-09-10T05:43:26.931Z,16.88
2022-09-10T05:44:26.893Z,16.88
2022-09-10T05:45:28.069Z,16.88
2022-09-10T05:46:26.847Z,16.88
2022-09-10T05:47:26.915Z,16.88
2022-09-10T05:48:26.815Z,11.25
2022-09-10T05:49:26.835Z,11.25
2022-09-10T05:50:27.344Z,11.25
2022-09-10T05:51:27.865Z,11.25
2022-09-10T05:52:26.854Z,11.25
2022-09-10T05:53:26.764Z,11.25
2022-09-10T05:54:26.754Z,11.25
2022-09-10T05:55:26.745Z,16.88
2022-09-10T05:56:26.768Z,16.88
2022-09-10T05:57:26.735Z,16.88
2022-09-10T05:58:27.707Z,16.88
2022-09-10T05:59:26.697Z,22.50
2022-09-10T06:00:27.024Z,22.50
2022-09-10T06:01:26.686Z,22.50
2022-09-10T06:02:26.725Z,22.50
2022-09-10T06:03:26.781Z,22.50
2022-09-10T06:04:26.637Z,22.50
2022-09-10T06:05:26.615Z,22.50
2022-09-10T06:06:26.638Z,28.12
2022-09-10T06:07:26.669Z,28.12
2022-09-10T06:08:26.653Z,28.12
2022-09-10T06:09:26.551Z,28.12
2022-09-10T06:10:26.636Z,28.12
2022-09-10T06:11:26.519Z,28.12
2022-09-10T06:12:26.590Z,28.12
2022-09-10T06:13:26.587Z,28.12
2022-09-10T06:14:26.583Z,28.12
2022-09-10T06:15:26.538Z,28.12
2022-09-10T06:16:26.529Z,33.75
2022-09-10T06:17:26.521Z,33.75
2022-09-10T06:18:26.521Z,33.75
2022-09-10T06:19:26.519Z,33.75
2022-09-10T06:20:26.459Z,33.75
2022-09-10T06:21:28.435Z,33.75
2022-09-10T06:22:26.450Z,39.38
2022-09-10T06:23:26.371Z,39.38
2022-09-10T06:24:26.451Z,39.38
2022-09-10T06:25:26.343Z,39.38
2022-09-10T06:26:26.360Z,39.38
2022-09-10T06:27:26.381Z,45.00
2022-09-10T06:28:26.380Z,45.00
2022-09-10T06:29:26.382Z,45.00
2022-09-10T06:30:26.365Z,45.00
2022-09-10T06:31:26.307Z,45.00
2022-09-10T06:32:26.255Z,45.00
2022-09-10T06:33:26.302Z,45.00
2022-09-10T06:34:26.323Z,50.62
2022-09-10T06:35:26.257Z,50.62
2022-09-10T06:36:27.253Z,56.25
2022-09-10T06:37:26.212Z,56.25
2022-09-10T06:38:26.245Z,56.25
2022-09-10T06:39:26.254Z,56.25
2022-09-10T06:40:26.185Z,56.25
2022-09-10T06:41:26.177Z,56.25
2022-09-10T06:43:36.349Z,61.88
2022-09-10T06:44:36.422Z,61.88
2022-09-10T06:45:36.377Z,56.25
2022-09-10T06:47:30.546Z,56.25
2022-09-10T06:48:39.421Z,56.25
2022-09-10T06:49:36.428Z,56.25
2022-09-10T06:50:36.294Z,61.88
2022-09-10T06:51:36.238Z,56.25
2022-09-10T06:52:36.276Z,56.25
2022-09-10T06:53:36.208Z,56.25
2022-09-10T06:54:36.283Z,56.25
2022-09-10T06:55:36.186Z,50.62
2022-09-10T06:56:36.175Z,45.00
2022-09-10T06:57:36.195Z,45.00
2022-09-10T06:58:37.261Z,45.00
2022-09-10T06:59:36.205Z,50.62
2022-09-10T07:00:36.114Z,50.62
2022-09-10T07:01:36.184Z,56.25
2022-09-10T07:02:36.133Z,56.25
2022-09-10T07:03:36.143Z,56.25
2022-09-10T07:04:36.155Z,56.25
2022-09-10T07:05:36.095Z,56.25
2022-09-10T07:06:36.055Z,56.25
2022-09-10T07:07:36.016Z,56.25
2022-09-10T07:08:36.050Z,56.25
2022-09-10T07:09:36.097Z,61.88
2022-09-10T07:10:35.996Z,61.88
2022-09-10T07:11:41.165Z,73.12
2022-09-10T07:12:36.960Z,67.50
2022-09-10T07:13:36.009Z,56.25
2022-09-10T07:14:35.937Z,56.25
2022-09-10T07:15:39.184Z,56.25
2022-09-10T07:16:36.040Z,61.88
2022-09-10T07:17:35.919Z,61.88
2022-09-10T07:18:36.069Z,56.25
2022-09-10T07:19:35.861Z,56.25
2022-09-10T07:20:35.930Z,56.25
2022-09-10T07:21:35.835Z,50.62
2022-09-10T07:22:35.871Z,39.38
2022-09-10T07:23:35.881Z,33.75
2022-09-10T07:24:35.898Z,39.38
2022-09-10T07:25:35.819Z,45.00
2022-09-10T07:26:35.790Z,45.00
2022-09-10T07:27:35.751Z,50.62
2022-09-10T07:28:35.828Z,56.25
2022-09-10T07:29:35.731Z,61.88
2022-09-10T07:30:35.724Z,84.38
2022-09-10T07:31:35.723Z,90.00
2022-09-10T07:32:35.744Z,90.00
2022-09-10T07:33:35.695Z,90.00
2022-09-10T07:34:35.741Z,90.00
2022-09-10T07:35:35.685Z,90.00
2022-09-10T07:36:35.675Z,84.38
2022-09-10T07:37:35.675Z,84.38
2022-09-10T07:38:35.683Z,84.38
2022-09-10T07:39:35.734Z,84.38
2022-09-10T07:40:35.613Z,84.38
2022-09-10T07:41:35.599Z,84.38
2022-09-10T07:42:35.602Z,84.38
2022-09-10T07:43:35.552Z,84.38
2022-09-10T07:44:35.606Z,84.38
2022-09-10T07:45:35.702Z,78.75
2022-09-10T07:46:35.524Z,73.12
2022-09-10T07:47:35.525Z,78.75
2022-09-10T07:48:35.547Z,73.12
2022-09-10T07:49:35.479Z,67.50
2022-09-10T07:50:35.477Z,67.50
2022-09-10T07:51:35.576Z,67.50
2022-09-10T07:52:35.477Z,61.88
2022-09-10T07:53:35.486Z,56.25
2022-09-10T07:54:35.444Z,50.62
2022-09-10T07:55:35.598Z,50.62
2022-09-10T07:56:35.485Z,50.62
2022-09-10T07:57:35.389Z,45.00
2022-09-10T07:58:35.408Z,67.50
2022-09-10T07:59:35.345Z,78.75
2022-09-10T08:00:35.458Z,73.12
2022-09-10T08:01:35.525Z,61.88
2022-09-10T08:02:35.354Z,56.25
2022-09-10T08:04:45.523Z,67.50
2022-09-10T08:05:45.622Z,73.12
2022-09-10T08:06:45.715Z,61.88
2022-09-10T08:07:45.534Z,73.12
2022-09-10T08:08:45.692Z,84.38
2022-09-10T08:09:45.504Z,90.00
2022-09-10T08:10:45.462Z,84.38
2022-09-10T08:11:45.521Z,84.38
2022-09-10T08:12:45.435Z,61.88
2022-09-10T08:13:45.511Z,45.00
2022-09-10T08:14:46.484Z,39.38
2022-09-10T08:15:45.402Z,56.25
2022-09-10T08:16:45.363Z,50.62
2022-09-10T08:17:45.367Z,56.25
2022-09-10T08:18:45.374Z,67.50
2022-09-10T08:19:45.365Z,67.50
2022-09-10T08:20:45.325Z,61.88
2022-09-10T08:21:46.309Z,73.12
2022-09-10T08:22:45.286Z,78.75
2022-09-10T08:23:45.280Z,67.50
2022-09-10T08:24:45.255Z,67.50
2022-09-10T08:25:45.355Z,61.88
2022-09-10T08:26:45.228Z,67.50
2022-09-10T08:27:45.327Z,61.88
2022-09-10T08:28:45.231Z,50.62
2022-09-10T08:29:45.237Z,67.50
2022-09-10T08:30:45.228Z,78.75
2022-09-10T08:31:45.176Z,84.38
2022-09-10T08:32:45.266Z,90.00
2022-09-10T08:33:45.157Z,90.00
2022-09-10T08:34:45.178Z,90.00
2022-09-10T08:35:45.183Z,84.38
2022-09-10T08:36:45.109Z,84.38
2022-09-10T08:37:45.188Z,84.38
2022-09-10T08:38:45.079Z,78.75
2022-09-10T08:39:45.131Z,84.38
2022-09-10T08:40:45.049Z,78.75
2022-09-10T08:41:45.040Z,73.12
2022-09-10T08:42:52.530Z,73.12
2022-09-10T08:43:52.508Z,90.00
2022-09-10T08:45:46.323Z,90.00
2022-09-10T08:46:56.994Z,84.38
2022-09-10T08:47:46.229Z,84.38
2022-09-10T08:48:53.714Z,67.50
2022-09-10T08:50:56.419Z,39.38
2022-09-10T08:52:05.106Z,39.38
2022-09-10T08:54:00.330Z,45.00
2022-09-10T08:55:07.816Z,45.00
2022-09-10T08:56:02.386Z,45.00
2022-09-10T08:57:00.306Z,45.00
2022-09-10T08:58:00.312Z,45.00
2022-09-10T08:59:00.336Z,39.38
2022-09-10T09:00:00.271Z,50.62
2022-09-10T09:01:00.259Z,56.25
2022-09-10T09:02:00.317Z,61.88
2022-09-10T09:03:00.250Z,50.62
2022-09-10T09:04:04.909Z,50.62
2022-09-10T09:05:01.306Z,56.25
2022-09-10T09:06:02.289Z,50.62
2022-09-10T09:07:00.189Z,61.88
2022-09-10T09:08:00.169Z,56.25
2022-09-10T09:09:00.199Z,56.25
2022-09-10T09:10:00.227Z,50.62
2022-09-10T09:11:00.236Z,56.25
2022-09-10T09:12:00.132Z,56.25
2022-09-10T09:13:00.092Z,61.88
2022-09-10T09:14:00.097Z,56.25
2022-09-10T09:15:00.087Z,50.62
2022-09-10T09:16:00.190Z,50.62
2022-09-10T09:17:00.072Z,67.50
2022-09-10T09:18:00.039Z,84.38
2022-09-10T09:19:00.002Z,95.62
2022-09-10T09:19:59.991Z,112.50
2022-09-10T09:20:59.996Z,101.25
2022-09-10T09:22:00.031Z,90.00
2022-09-10T09:22:59.951Z,78.75
2022-09-10T09:24:15.195Z,78.75
2022-09-10T09:25:00.933Z,73.12
2022-09-10T09:25:59.914Z,78.75
2022-09-10T09:27:00.031Z,78.75
2022-09-10T09:27:59.903Z,78.75
2022-09-10T09:28:59.992Z,73.12
2022-09-10T09:29:59.923Z,73.12
2022-09-10T09:31:02.936Z,61.88
2022-09-10T09:32:00.242Z,61.88
2022-09-10T09:32:59.835Z,67.50
2022-09-10T09:34:07.339Z,73.12
2022-09-10T09:34:59.831Z,90.00
2022-09-10T09:35:59.789Z,101.25
2022-09-10T09:36:59.779Z,101.25
2022-09-10T09:38:00.763Z,101.25
2022-09-10T09:38:59.759Z,90.00
2022-09-10T09:39:59.756Z,101.25
2022-09-10T09:41:09.419Z,140.62
2022-09-10T09:42:01.729Z,151.88
2022-09-10T09:43:07.193Z,157.50
2022-09-10T09:44:07.201Z,168.75
2022-09-10T09:45:07.176Z,168.75
2022-09-10T09:46:09.415Z,163.12
2022-09-10T09:47:07.392Z,135.00
2022-09-10T10:03:41.839Z,123.75
2022-09-10T10:04:42.409Z,123.75
2022-09-10T10:05:41.868Z,135.00
2022-09-10T10:06:41.794Z,135.00
2022-09-10T10:07:41.927Z,123.75
2022-09-10T10:08:41.800Z,123.75
2022-09-10T10:09:41.788Z,95.62
2022-09-10T10:10:41.800Z,84.38
2022-09-10T10:11:41.743Z,73.12
2022-09-10T10:12:41.820Z,61.88
2022-09-10T10:13:41.720Z,45.00
2022-09-10T10:14:41.673Z,45.00
2022-09-10T10:15:41.797Z,67.50
2022-09-10T10:16:41.763Z,84.38
2022-09-10T10:17:41.669Z,73.12
2022-09-10T10:18:41.643Z,61.88
2022-09-10T10:19:44.291Z,73.12
2022-09-10T10:20:41.654Z,56.25
2022-09-10T10:21:41.570Z,45.00
2022-09-10T10:22:41.613Z,45.00
2022-09-10T10:23:41.571Z,39.38
2022-09-10T10:24:41.582Z,33.75
2022-09-10T10:25:41.639Z,22.50
2022-09-10T10:26:41.531Z,28.12
2022-09-10T10:27:41.482Z,22.50
2022-09-10T10:28:41.515Z,28.12
2022-09-10T10:29:42.542Z,28.12
2022-09-10T10:30:41.501Z,33.75
2022-09-10T10:31:41.474Z,33.75
2022-09-10T10:32:41.434Z,39.38
2022-09-10T10:33:41.442Z,39.38
2022-09-10T10:34:41.485Z,45.00
2022-09-10T10:35:41.456Z,50.62
2022-09-10T10:36:42.425Z,50.62
2022-09-10T10:37:41.356Z,56.25
2022-09-10T10:38:41.374Z,45.00
2022-09-10T10:39:41.381Z,33.75
2022-09-10T10:40:41.384Z,22.50
2022-09-10T10:41:41.310Z,16.88
2022-09-10T10:42:41.346Z,22.50
2022-09-10T10:43:41.395Z,45.00
2022-09-10T10:44:41.352Z,56.25
2022-09-10T10:45:41.306Z,67.50
2022-09-10T10:46:41.403Z,73.12
2022-09-10T10:47:41.269Z,73.12
2022-09-10T10:48:41.418Z,73.12
2022-09-10T10:49:41.275Z,73.12
2022-09-10T10:50:41.257Z,78.75
2022-09-10T10:51:42.225Z,78.75
2022-09-10T10:52:41.266Z,84.38
2022-09-10T10:53:41.187Z,84.38
2022-09-10T10:54:41.128Z,84.38
2022-09-10T10:55:41.188Z,78.75
2022-09-10T10:56:41.137Z,78.75
2022-09-10T10:57:41.128Z,61.88
2022-09-10T10:58:41.219Z,56.25
2022-09-10T10:59:41.108Z,45.00
2022-09-10T11:00:42.184Z,39.38
2022-09-10T11:01:41.308Z,45.00
2022-09-10T11:02:41.083Z,56.25
2022-09-10T11:03:41.000Z,45.00
2022-09-10T11:04:43.136Z,33.75
2022-09-10T11:05:40.988Z,45.00
2022-09-10T11:06:41.062Z,61.88
2022-09-10T11:07:41.001Z,73.12
2022-09-10T11:08:41.070Z,84.38
2022-09-10T11:09:40.968Z,95.62
2022-09-10T11:10:40.931Z,106.88
2022-09-10T11:11:40.988Z,101.25
2022-09-10T11:12:40.929Z,112.50
2022-09-10T11:13:40.891Z,101.25
2022-09-10T11:14:40.920Z,101.25
2022-09-10T11:15:40.888Z,78.75
2022-09-10T11:16:40.932Z,73.12
2022-09-10T11:17:40.862Z,84.38
2022-09-10T11:18:41.073Z,73.12
2022-09-10T11:19:40.798Z,61.88
2022-09-10T11:20:40.853Z,73.12
2022-09-10T11:21:41.885Z,78.75
2022-09-10T11:22:40.795Z,78.75
2022-09-10T11:23:40.910Z,106.88
2022-09-10T11:24:40.733Z,112.50
2022-09-10T11:25:40.784Z,78.75
2022-09-10T11:26:40.761Z,73.12
2022-09-10T11:27:40.784Z,73.12
2022-09-10T11:28:40.899Z,84.38
2022-09-10T11:29:40.721Z,90.00
2022-09-10T11:30:40.827Z,146.25
2022-09-10T11:31:40.768Z,230.62
2022-09-10T11:32:40.725Z,174.38
2022-09-10T11:33:40.627Z,157.50
2022-09-10T11:34:40.649Z,151.88
2022-09-10T11:35:40.608Z,157.50
2022-09-10T11:36:40.701Z,146.25
2022-09-10T11:37:40.572Z,135.00
2022-09-10T11:38:40.762Z,118.12
2022-09-10T11:39:40.573Z,118.12
2022-09-10T11:40:40.525Z,140.62
2022-09-10T11:41:40.597Z,208.12
2022-09-10T11:42:40.634Z,281.25
2022-09-10T11:43:40.489Z,326.25
2022-09-10T11:44:40.518Z,393.75
2022-09-10T11:45:40.508Z,382.50
2022-09-10T11:46:40.509Z,382.50
2022-09-10T11:47:40.566Z,382.50
2022-09-10T11:48:40.675Z,382.50
2022-09-10T11:49:40.430Z,388.12
2022-09-10T11:50:40.438Z,421.88
2022-09-10T11:51:40.389Z,590.62
2022-09-10T11:52:40.459Z,506.25
2022-09-10T11:53:40.359Z,478.12
2022-09-10T11:54:40.399Z,433.12
2022-09-10T11:56:50.558Z,405.00
2022-09-10T11:57:50.629Z,489.38
2022-09-10T11:58:50.630Z,500.62
2022-09-10T11:59:50.559Z,590.62
2022-09-10T12:00:50.571Z,540.00
2022-09-10T12:01:50.551Z,360.00
2022-09-10T12:02:50.560Z,427.50
2022-09-10T12:03:50.603Z,427.50
2022-09-10T12:04:50.523Z,275.62
2022-09-10T12:05:50.507Z,393.75
2022-09-10T12:06:51.523Z,596.25
2022-09-10T12:07:50.433Z,326.25
2022-09-10T12:08:50.521Z,230.62
2022-09-10T12:09:50.422Z,135.00
2022-09-10T12:10:50.372Z,196.88
2022-09-10T12:11:51.442Z,264.38
2022-09-10T12:12:50.462Z,129.38
2022-09-10T12:13:50.482Z,675.00
2022-09-10T12:14:50.353Z,84.38
2022-09-10T12:15:50.373Z,135.00
2022-09-10T12:16:50.396Z,95.62
2022-09-10T12:17:50.356Z,135.00
2022-09-10T12:18:50.263Z,163.12
2022-09-10T12:19:51.261Z,196.88
2022-09-10T12:20:50.282Z,84.38
2022-09-10T12:21:50.229Z,118.12
2022-09-10T12:22:50.289Z,258.75
2022-09-10T12:23:50.195Z,1957.50
2022-09-10T12:24:50.325Z,3639.38
2022-09-10T12:25:50.213Z,3706.88
2022-09-10T12:26:50.265Z,4016.25
2022-09-10T12:27:50.233Z,4387.50
2022-09-10T12:28:50.677Z,309.38
2022-09-10T12:29:50.115Z,545.62
2022-09-10T12:30:50.133Z,2587.50
2022-09-10T12:31:51.155Z,534.38
2022-09-10T12:32:50.097Z,129.38
2022-09-10T12:33:50.089Z,135.00
2022-09-10T12:34:50.097Z,1035.00
2022-09-10T12:35:50.087Z,303.75
2022-09-10T12:36:50.089Z,399.38
2022-09-10T12:37:50.020Z,534.38
2022-09-10T12:38:50.002Z,247.50
2022-09-10T12:39:50.076Z,309.38
2022-09-10T12:40:50.068Z,168.75
2022-09-10T12:41:49.999Z,883.12
2022-09-10T12:42:50.101Z,2345.62
2022-09-10T12:43:50.053Z,855.00
2022-09-10T12:44:49.962Z,691.88
2022-09-10T12:47:00.068Z,0.00
2022-09-10T12:48:00.118Z,0.00
2022-09-10T12:48:59.998Z,0.00
2022-09-10T12:50:00.123Z,0.00
2022-09-10T12:50:59.960Z,0.00
2022-09-10T12:52:00.019Z,0.00
2022-09-10T12:53:00.067Z,0.00
2022-09-10T12:53:59.929Z,0.00
2022-09-10T12:55:00.048Z,0.00
2022-09-10T12:55:59.922Z,0.00
2022-09-10T12:56:59.952Z,0.00
2022-09-10T12:58:00.004Z,0.00
2022-09-10T12:58:59.941Z,0.00
2022-09-10T12:59:59.960Z,0.00
2022-09-10T13:00:59.843Z,0.00
2022-09-10T13:02:00.910Z,0.00
2022-09-10T13:02:59.841Z,0.00
2022-09-10T13:03:59.883Z,0.00
2022-09-10T13:04:59.904Z,0.00
2022-09-10T13:05:59.935Z,0.00
2022-09-10T13:06:59.802Z,0.00
2022-09-10T13:07:59.845Z,0.00
2022-09-10T13:08:59.804Z,0.00
2022-09-10T13:09:59.834Z,0.00
2022-09-10T13:10:59.727Z,0.00
2022-09-10T13:11:59.746Z,0.00
2022-09-10T13:13:01.768Z,0.00
2022-09-10T13:13:59.680Z,0.00
2022-09-10T13:14:59.759Z,0.00
2022-09-10T13:15:59.789Z,0.00
2022-09-10T13:16:59.648Z,0.00
2022-09-10T13:17:59.720Z,0.00
2022-09-10T13:18:59.679Z,0.00
2022-09-10T13:20:00.728Z,0.00
2022-09-10T13:20:59.692Z,0.00
2022-09-10T13:21:59.598Z,0.00
2022-09-10T13:22:59.639Z,0.00
2022-09-10T13:23:59.609Z,0.00
2022-09-10T13:24:59.555Z,0.00
2022-09-10T13:25:59.627Z,0.00
2022-09-10T13:26:59.511Z,0.00
2022-09-10T13:27:59.631Z,0.00
2022-09-10T13:28:59.542Z,0.00
2022-09-10T13:30:01.558Z,0.00
2022-09-10T13:30:59.620Z,0.00
2022-09-10T13:31:59.464Z,0.00
2022-09-10T13:32:59.465Z,0.00
2022-09-10T13:33:59.473Z,0.00
2022-09-10T13:34:59.414Z,0.00
2022-09-10T13:35:59.483Z,0.00
2022-09-10T13:36:59.395Z,0.00
2022-09-10T13:37:59.439Z,0.00
2022-09-10T13:39:02.776Z,0.00